sensor_id;sensor_type;location;lat;lon;timestamp;temperature;humidity
8820;DHT22;4446;50.876;4.736;2023-03-01T00:01:34;-2.60;99.90
8820;DHT22;4446;50.876;4.736;2023-03-01T00:04:01;-2.50;99.90
8820;DHT22;4446;50.876;4.736;2023-03-01T00:06:28;-2.60;99.90
8820;DHT22;4446;50.876;4.736;2023-03-01T00:08:55;-2.50;99.90
8820;DHT22;4446;50.876;4.736;2023-03-01T00:11:24;-2.50;99.90
8820;DHT22;4446;50.876;4.736;2023-03-01T00:13:53;-2.60;99.90
8820;DHT22;4446;50.876;4.736;2023-03-01T00:16:21;-2.60;99.90
8820;DHT22;4446;50.876;4.736;2023-03-01T00:18:49;-2.60;99.90
8820;DHT22;4446;50.876;4.736;2023-03-01T00:21:16;-2.70;99.90
8820;DHT22;4446;50.876;4.736;2023-03-01T00:23:43;-2.80;99.90
8820;DHT22;4446;50.876;4.736;2023-03-01T00:26:12;-2.80;99.90
8820;DHT22;4446;50.876;4.736;2023-03-01T00:28:41;-2.90;99.90
8820;DHT22;4446;50.876;4.736;2023-03-01T00:31:10;-3.00;99.90
8820;DHT22;4446;50.876;4.736;2023-03-01T00:33:38;-3.00;99.90
8820;DHT22;4446;50.876;4.736;2023-03-01T00:36:05;-3.10;99.90
8820;DHT22;4446;50.876;4.736;2023-03-01T00:38:35;-3.10;99.90
8820;DHT22;4446;50.876;4.736;2023-03-01T00:41:05;-3.20;99.90
8820;DHT22;4446;50.876;4.736;2023-03-01T00:43:32;-3.30;99.90
8820;DHT22;4446;50.876;4.736;2023-03-01T00:46:04;-3.30;99.90
8820;DHT22;4446;50.876;4.736;2023-03-01T00:48:31;-3.40;99.90
8820;DHT22;4446;50.876;4.736;2023-03-01T00:51:05;-3.40;99.90
8820;DHT22;4446;50.876;4.736;2023-03-01T00:53:32;-3.50;99.90
8820;DHT22;4446;50.876;4.736;2023-03-01T00:55:59;-3.50;99.90
8820;DHT22;4446;50.876;4.736;2023-03-01T00:58:26;-3.50;99.90
8820;DHT22;4446;50.876;4.736;2023-03-01T01:00:52;-3.60;99.90
8820;DHT22;4446;50.876;4.736;2023-03-01T01:03:21;-3.60;99.90
8820;DHT22;4446;50.876;4.736;2023-03-01T01:05:50;-3.60;99.90
8820;DHT22;4446;50.876;4.736;2023-03-01T01:08:17;-3.70;99.90
8820;DHT22;4446;50.876;4.736;2023-03-01T01:10:44;-3.70;99.90
8820;DHT22;4446;50.876;4.736;2023-03-01T01:13:11;-3.60;99.90
8820;DHT22;4446;50.876;4.736;2023-03-01T01:15:38;-3.60;99.90
8820;DHT22;4446;50.876;4.736;2023-03-01T01:18:06;-3.60;99.90
8820;DHT22;4446;50.876;4.736;2023-03-01T01:20:35;-3.60;99.90
8820;DHT22;4446;50.876;4.736;2023-03-01T01:23:05;-3.60;99.90
8820;DHT22;4446;50.876;4.736;2023-03-01T01:25:34;-3.60;99.90
8820;DHT22;4446;50.876;4.736;2023-03-01T01:28:02;-3.50;99.90
8820;DHT22;4446;50.876;4.736;2023-03-01T01:30:29;-3.50;99.90
8820;DHT22;4446;50.876;4.736;2023-03-01T01:32:55;-3.50;99.90
8820;DHT22;4446;50.876;4.736;2023-03-01T01:35:22;-3.40;99.90
8820;DHT22;4446;50.876;4.736;2023-03-01T01:37:51;-3.40;99.90
8820;DHT22;4446;50.876;4.736;2023-03-01T01:40:18;-3.40;99.90
8820;DHT22;4446;50.876;4.736;2023-03-01T01:42:45;-3.40;99.90
8820;DHT22;4446;50.876;4.736;2023-03-01T01:45:27;-3.40;99.90
8820;DHT22;4446;50.876;4.736;2023-03-01T01:47:57;-3.40;99.90
8820;DHT22;4446;50.876;4.736;2023-03-01T01:50:25;-3.40;99.90
8820;DHT22;4446;50.876;4.736;2023-03-01T01:52:54;-3.40;99.90
8820;DHT22;4446;50.876;4.736;2023-03-01T01:55:23;-3.30;99.90
8820;DHT22;4446;50.876;4.736;2023-03-01T01:57:55;-3.30;99.90
8820;DHT22;4446;50.876;4.736;2023-03-01T02:00:26;-3.40;99.90
8820;DHT22;4446;50.876;4.736;2023-03-01T02:02:56;-3.40;99.90
8820;DHT22;4446;50.876;4.736;2023-03-01T02:05:37;-3.40;99.90
8820;DHT22;4446;50.876;4.736;2023-03-01T02:08:08;-3.40;99.90
8820;DHT22;4446;50.876;4.736;2023-03-01T02:10:37;-3.50;99.90
8820;DHT22;4446;50.876;4.736;2023-03-01T02:13:05;-3.50;99.90
8820;DHT22;4446;50.876;4.736;2023-03-01T02:15:33;-3.60;99.90
8820;DHT22;4446;50.876;4.736;2023-03-01T02:18:01;-3.70;99.90
8820;DHT22;4446;50.876;4.736;2023-03-01T02:20:34;-3.70;99.90
8820;DHT22;4446;50.876;4.736;2023-03-01T02:23:02;-3.80;99.90
8820;DHT22;4446;50.876;4.736;2023-03-01T02:25:39;-3.90;99.90
8820;DHT22;4446;50.876;4.736;2023-03-01T02:30:45;-4.00;99.90
8820;DHT22;4446;50.876;4.736;2023-03-01T02:33:27;-4.00;99.90
8820;DHT22;4446;50.876;4.736;2023-03-01T02:35:59;-4.00;99.90
8820;DHT22;4446;50.876;4.736;2023-03-01T02:38:28;-4.00;99.90
8820;DHT22;4446;50.876;4.736;2023-03-01T02:40:56;-4.00;99.90
8820;DHT22;4446;50.876;4.736;2023-03-01T02:43:27;-4.00;99.90
8820;DHT22;4446;50.876;4.736;2023-03-01T02:45:58;-4.10;99.90
8820;DHT22;4446;50.876;4.736;2023-03-01T02:48:26;-4.10;99.90
8820;DHT22;4446;50.876;4.736;2023-03-01T02:51:03;-4.20;99.90
8820;DHT22;4446;50.876;4.736;2023-03-01T02:53:38;-4.20;99.90
8820;DHT22;4446;50.876;4.736;2023-03-01T02:56:08;-4.30;99.90
8820;DHT22;4446;50.876;4.736;2023-03-01T02:58:39;-4.30;99.90
8820;DHT22;4446;50.876;4.736;2023-03-01T03:01:12;-4.30;99.90
8820;DHT22;4446;50.876;4.736;2023-03-01T03:03:41;-4.30;99.90
8820;DHT22;4446;50.876;4.736;2023-03-01T03:06:09;-4.40;99.90
8820;DHT22;4446;50.876;4.736;2023-03-01T03:08:36;-4.40;99.90
8820;DHT22;4446;50.876;4.736;2023-03-01T03:11:03;-4.40;99.90
8820;DHT22;4446;50.876;4.736;2023-03-01T03:13:30;-4.40;99.90
8820;DHT22;4446;50.876;4.736;2023-03-01T03:15:58;-4.50;99.90
8820;DHT22;4446;50.876;4.736;2023-03-01T03:18:26;-4.50;99.90
8820;DHT22;4446;50.876;4.736;2023-03-01T03:20:53;-4.50;99.90
8820;DHT22;4446;50.876;4.736;2023-03-01T03:23:21;-4.50;99.90
8820;DHT22;4446;50.876;4.736;2023-03-01T03:25:49;-4.40;99.90
8820;DHT22;4446;50.876;4.736;2023-03-01T03:28:17;-4.50;99.90
8820;DHT22;4446;50.876;4.736;2023-03-01T03:30:44;-4.50;99.90
8820;DHT22;4446;50.876;4.736;2023-03-01T03:33:12;-4.50;99.90
8820;DHT22;4446;50.876;4.736;2023-03-01T03:35:42;-4.50;99.90
8820;DHT22;4446;50.876;4.736;2023-03-01T03:38:12;-4.50;99.90
8820;DHT22;4446;50.876;4.736;2023-03-01T03:40:44;-4.50;99.90
8820;DHT22;4446;50.876;4.736;2023-03-01T03:43:13;-4.50;99.90
8820;DHT22;4446;50.876;4.736;2023-03-01T03:45:40;-4.50;99.90
8820;DHT22;4446;50.876;4.736;2023-03-01T03:48:08;-4.50;99.90
8820;DHT22;4446;50.876;4.736;2023-03-01T03:50:36;-4.50;99.90
8820;DHT22;4446;50.876;4.736;2023-03-01T03:53:06;-4.50;99.90
8820;DHT22;4446;50.876;4.736;2023-03-01T03:55:33;-4.50;99.90
8820;DHT22;4446;50.876;4.736;2023-03-01T03:58:01;-4.50;99.90
8820;DHT22;4446;50.876;4.736;2023-03-01T04:00:33;-4.50;99.90
8820;DHT22;4446;50.876;4.736;2023-03-01T04:03:00;-4.50;99.90
8820;DHT22;4446;50.876;4.736;2023-03-01T04:05:27;-4.40;99.90
8820;DHT22;4446;50.876;4.736;2023-03-01T04:07:55;-4.30;99.90
8820;DHT22;4446;50.876;4.736;2023-03-01T04:10:29;-4.30;99.90
8820;DHT22;4446;50.876;4.736;2023-03-01T04:12:57;-4.30;99.90
8820;DHT22;4446;50.876;4.736;2023-03-01T04:15:24;-4.20;99.90
8820;DHT22;4446;50.876;4.736;2023-03-01T04:17:53;-4.20;99.90
8820;DHT22;4446;50.876;4.736;2023-03-01T04:20:21;-4.10;99.90
8820;DHT22;4446;50.876;4.736;2023-03-01T04:22:51;-4.10;99.90
8820;DHT22;4446;50.876;4.736;2023-03-01T04:25:18;-4.10;99.90
8820;DHT22;4446;50.876;4.736;2023-03-01T04:27:46;-4.00;99.90
8820;DHT22;4446;50.876;4.736;2023-03-01T04:30:14;-4.00;99.90
8820;DHT22;4446;50.876;4.736;2023-03-01T04:32:41;-4.00;99.90
8820;DHT22;4446;50.876;4.736;2023-03-01T04:35:08;-4.00;99.90
8820;DHT22;4446;50.876;4.736;2023-03-01T04:37:35;-4.00;99.90
8820;DHT22;4446;50.876;4.736;2023-03-01T04:40:03;-3.90;99.90
8820;DHT22;4446;50.876;4.736;2023-03-01T04:42:38;-3.90;99.90
8820;DHT22;4446;50.876;4.736;2023-03-01T04:45:07;-3.90;99.90
8820;DHT22;4446;50.876;4.736;2023-03-01T04:47:39;-3.80;99.90
8820;DHT22;4446;50.876;4.736;2023-03-01T04:50:07;-3.80;99.90
8820;DHT22;4446;50.876;4.736;2023-03-01T04:52:34;-3.90;99.90
8820;DHT22;4446;50.876;4.736;2023-03-01T04:55:02;-3.90;99.90
8820;DHT22;4446;50.876;4.736;2023-03-01T04:57:29;-4.00;99.90
8820;DHT22;4446;50.876;4.736;2023-03-01T04:59:56;-4.00;99.90
8820;DHT22;4446;50.876;4.736;2023-03-01T05:02:24;-3.90;99.90
8820;DHT22;4446;50.876;4.736;2023-03-01T05:04:51;-3.90;99.90
8820;DHT22;4446;50.876;4.736;2023-03-01T05:07:23;-3.90;99.90
8820;DHT22;4446;50.876;4.736;2023-03-01T05:09:50;-3.90;99.90
8820;DHT22;4446;50.876;4.736;2023-03-01T05:12:17;-3.90;99.90
8820;DHT22;4446;50.876;4.736;2023-03-01T05:14:44;-4.00;99.90
8820;DHT22;4446;50.876;4.736;2023-03-01T05:17:10;-4.10;99.90
8820;DHT22;4446;50.876;4.736;2023-03-01T05:19:39;-4.10;99.90
8820;DHT22;4446;50.876;4.736;2023-03-01T05:22:08;-4.10;99.90
8820;DHT22;4446;50.876;4.736;2023-03-01T05:24:35;-4.10;99.90
8820;DHT22;4446;50.876;4.736;2023-03-01T05:27:02;-4.20;99.90
8820;DHT22;4446;50.876;4.736;2023-03-01T05:29:31;-4.20;99.90
8820;DHT22;4446;50.876;4.736;2023-03-01T05:32:01;-4.20;99.90
8820;DHT22;4446;50.876;4.736;2023-03-01T05:34:31;-4.20;99.90
8820;DHT22;4446;50.876;4.736;2023-03-01T05:36:59;-4.20;99.90
8820;DHT22;4446;50.876;4.736;2023-03-01T05:39:28;-4.30;99.90
8820;DHT22;4446;50.876;4.736;2023-03-01T05:41:56;-4.30;99.90
8820;DHT22;4446;50.876;4.736;2023-03-01T05:44:24;-4.40;99.90
8820;DHT22;4446;50.876;4.736;2023-03-01T05:46:51;-4.40;99.90
8820;DHT22;4446;50.876;4.736;2023-03-01T05:49:18;-4.50;99.90
8820;DHT22;4446;50.876;4.736;2023-03-01T05:51:48;-4.50;99.90
8820;DHT22;4446;50.876;4.736;2023-03-01T05:54:17;-4.50;99.90
8820;DHT22;4446;50.876;4.736;2023-03-01T05:56:45;-4.50;99.90
8820;DHT22;4446;50.876;4.736;2023-03-01T05:59:12;-4.50;99.90
8820;DHT22;4446;50.876;4.736;2023-03-01T06:01:41;-4.60;99.90
8820;DHT22;4446;50.876;4.736;2023-03-01T06:04:08;-4.60;99.90
8820;DHT22;4446;50.876;4.736;2023-03-01T06:06:37;-4.60;99.90
8820;DHT22;4446;50.876;4.736;2023-03-01T06:09:04;-4.60;99.90
8820;DHT22;4446;50.876;4.736;2023-03-01T06:11:35;-4.60;99.90
8820;DHT22;4446;50.876;4.736;2023-03-01T06:14:02;-4.50;99.90
8820;DHT22;4446;50.876;4.736;2023-03-01T06:16:29;-4.50;99.90
8820;DHT22;4446;50.876;4.736;2023-03-01T06:18:56;-4.50;99.90
8820;DHT22;4446;50.876;4.736;2023-03-01T06:21:23;-4.50;99.90
8820;DHT22;4446;50.876;4.736;2023-03-01T06:23:50;-4.50;99.90
8820;DHT22;4446;50.876;4.736;2023-03-01T06:26:17;-4.50;99.90
8820;DHT22;4446;50.876;4.736;2023-03-01T06:28:45;-4.40;99.90
8820;DHT22;4446;50.876;4.736;2023-03-01T06:31:12;-4.40;99.90
8820;DHT22;4446;50.876;4.736;2023-03-01T06:33:39;-4.30;99.90
8820;DHT22;4446;50.876;4.736;2023-03-01T06:36:07;-4.30;99.90
8820;DHT22;4446;50.876;4.736;2023-03-01T06:38:35;-4.30;99.90
8820;DHT22;4446;50.876;4.736;2023-03-01T06:41:02;-4.40;99.90
8820;DHT22;4446;50.876;4.736;2023-03-01T06:43:29;-4.30;99.90
8820;DHT22;4446;50.876;4.736;2023-03-01T06:45:57;-4.40;99.90
8820;DHT22;4446;50.876;4.736;2023-03-01T06:48:24;-4.40;99.90
8820;DHT22;4446;50.876;4.736;2023-03-01T06:50:51;-4.40;99.90
8820;DHT22;4446;50.876;4.736;2023-03-01T06:53:18;-4.40;99.90
8820;DHT22;4446;50.876;4.736;2023-03-01T06:55:45;-4.40;99.90
8820;DHT22;4446;50.876;4.736;2023-03-01T06:58:11;-4.40;99.90
8820;DHT22;4446;50.876;4.736;2023-03-01T07:00:38;-4.40;99.90
8820;DHT22;4446;50.876;4.736;2023-03-01T07:03:08;-4.30;99.90
8820;DHT22;4446;50.876;4.736;2023-03-01T07:05:35;-4.20;99.90
8820;DHT22;4446;50.876;4.736;2023-03-01T07:08:02;-4.20;99.90
8820;DHT22;4446;50.876;4.736;2023-03-01T07:10:29;-4.20;99.90
8820;DHT22;4446;50.876;4.736;2023-03-01T07:12:56;-4.20;99.90
8820;DHT22;4446;50.876;4.736;2023-03-01T07:15:24;-4.10;99.90
8820;DHT22;4446;50.876;4.736;2023-03-01T07:17:51;-4.00;99.90
8820;DHT22;4446;50.876;4.736;2023-03-01T07:20:20;-4.00;99.90
8820;DHT22;4446;50.876;4.736;2023-03-01T07:22:49;-3.90;99.90
8820;DHT22;4446;50.876;4.736;2023-03-01T07:25:17;-3.90;99.90
8820;DHT22;4446;50.876;4.736;2023-03-01T07:27:44;-3.80;99.90
8820;DHT22;4446;50.876;4.736;2023-03-01T07:30:15;-3.70;99.90
8820;DHT22;4446;50.876;4.736;2023-03-01T07:32:42;-3.60;99.90
8820;DHT22;4446;50.876;4.736;2023-03-01T07:35:10;-3.40;99.90
8820;DHT22;4446;50.876;4.736;2023-03-01T07:37:38;-3.30;99.90
8820;DHT22;4446;50.876;4.736;2023-03-01T07:40:07;-3.20;99.90
8820;DHT22;4446;50.876;4.736;2023-03-01T07:42:34;-3.10;99.90
8820;DHT22;4446;50.876;4.736;2023-03-01T07:45:02;-3.10;99.90
8820;DHT22;4446;50.876;4.736;2023-03-01T07:47:29;-3.10;99.90
8820;DHT22;4446;50.876;4.736;2023-03-01T07:49:56;-3.00;99.90
8820;DHT22;4446;50.876;4.736;2023-03-01T07:52:23;-3.00;99.90
8820;DHT22;4446;50.876;4.736;2023-03-01T07:54:51;-3.00;99.90
8820;DHT22;4446;50.876;4.736;2023-03-01T07:57:18;-2.90;99.90
8820;DHT22;4446;50.876;4.736;2023-03-01T07:59:45;-2.90;99.90
8820;DHT22;4446;50.876;4.736;2023-03-01T08:02:12;-2.80;99.90
8820;DHT22;4446;50.876;4.736;2023-03-01T08:04:40;-2.70;99.90
8820;DHT22;4446;50.876;4.736;2023-03-01T08:07:07;-2.60;99.90
8820;DHT22;4446;50.876;4.736;2023-03-01T08:09:35;-2.50;99.90
8820;DHT22;4446;50.876;4.736;2023-03-01T08:12:04;-2.40;99.90
8820;DHT22;4446;50.876;4.736;2023-03-01T08:14:31;-2.20;99.90
8820;DHT22;4446;50.876;4.736;2023-03-01T08:16:58;-2.10;99.90
8820;DHT22;4446;50.876;4.736;2023-03-01T08:19:25;-1.90;99.90
8820;DHT22;4446;50.876;4.736;2023-03-01T08:21:53;-1.80;99.90
8820;DHT22;4446;50.876;4.736;2023-03-01T08:24:20;-1.80;99.90
8820;DHT22;4446;50.876;4.736;2023-03-01T08:26:48;-1.70;99.90
8820;DHT22;4446;50.876;4.736;2023-03-01T08:29:16;-1.60;99.90
8820;DHT22;4446;50.876;4.736;2023-03-01T08:31:43;-1.50;99.90
8820;DHT22;4446;50.876;4.736;2023-03-01T08:34:12;-1.30;99.90
8820;DHT22;4446;50.876;4.736;2023-03-01T08:36:41;-1.20;99.90
8820;DHT22;4446;50.876;4.736;2023-03-01T08:39:09;-1.00;99.90
8820;DHT22;4446;50.876;4.736;2023-03-01T08:41:37;-0.90;99.90
8820;DHT22;4446;50.876;4.736;2023-03-01T08:44:04;-0.70;99.90
8820;DHT22;4446;50.876;4.736;2023-03-01T08:46:34;-0.60;99.90
8820;DHT22;4446;50.876;4.736;2023-03-01T08:49:03;-0.50;99.90
8820;DHT22;4446;50.876;4.736;2023-03-01T08:51:30;-0.40;99.90
8820;DHT22;4446;50.876;4.736;2023-03-01T08:54:02;-0.30;99.90
8820;DHT22;4446;50.876;4.736;2023-03-01T08:56:29;-0.20;99.90
8820;DHT22;4446;50.876;4.736;2023-03-01T08:58:55;-0.10;99.90
8820;DHT22;4446;50.876;4.736;2023-03-01T09:01:22;0.10;99.90
8820;DHT22;4446;50.876;4.736;2023-03-01T09:03:51;0.20;99.90
8820;DHT22;4446;50.876;4.736;2023-03-01T09:06:18;0.20;99.90
8820;DHT22;4446;50.876;4.736;2023-03-01T09:08:47;0.30;99.90
8820;DHT22;4446;50.876;4.736;2023-03-01T09:11:16;0.50;99.90
8820;DHT22;4446;50.876;4.736;2023-03-01T09:13:43;0.60;99.90
8820;DHT22;4446;50.876;4.736;2023-03-01T09:16:12;0.70;99.90
8820;DHT22;4446;50.876;4.736;2023-03-01T09:18:39;0.80;99.90
8820;DHT22;4446;50.876;4.736;2023-03-01T09:21:10;0.90;99.90
8820;DHT22;4446;50.876;4.736;2023-03-01T09:23:41;0.90;99.90
8820;DHT22;4446;50.876;4.736;2023-03-01T09:26:09;1.00;99.90
8820;DHT22;4446;50.876;4.736;2023-03-01T09:28:37;1.20;99.90
8820;DHT22;4446;50.876;4.736;2023-03-01T09:31:04;1.20;99.90
8820;DHT22;4446;50.876;4.736;2023-03-01T09:33:32;1.30;99.90
8820;DHT22;4446;50.876;4.736;2023-03-01T09:36:00;1.40;99.90
8820;DHT22;4446;50.876;4.736;2023-03-01T09:38:29;1.50;99.90
8820;DHT22;4446;50.876;4.736;2023-03-01T09:40:56;1.60;99.90
8820;DHT22;4446;50.876;4.736;2023-03-01T09:43:26;1.70;99.90
8820;DHT22;4446;50.876;4.736;2023-03-01T09:46:00;1.90;99.90
8820;DHT22;4446;50.876;4.736;2023-03-01T09:48:36;1.90;99.90
8820;DHT22;4446;50.876;4.736;2023-03-01T09:51:07;2.00;99.90
8820;DHT22;4446;50.876;4.736;2023-03-01T09:53:36;2.20;99.90
8820;DHT22;4446;50.876;4.736;2023-03-01T09:56:10;2.30;99.90
8820;DHT22;4446;50.876;4.736;2023-03-01T09:58:47;2.40;99.90
8820;DHT22;4446;50.876;4.736;2023-03-01T10:01:35;2.40;99.90
8820;DHT22;4446;50.876;4.736;2023-03-01T10:04:13;2.50;99.90
8820;DHT22;4446;50.876;4.736;2023-03-01T10:06:51;2.60;99.90
8820;DHT22;4446;50.876;4.736;2023-03-01T10:09:20;2.70;99.90
8820;DHT22;4446;50.876;4.736;2023-03-01T10:11:51;2.80;99.90
8820;DHT22;4446;50.876;4.736;2023-03-01T10:14:27;2.80;99.90
8820;DHT22;4446;50.876;4.736;2023-03-01T10:16:58;2.90;99.90
8820;DHT22;4446;50.876;4.736;2023-03-01T10:19:32;3.00;99.90
8820;DHT22;4446;50.876;4.736;2023-03-01T10:22:11;3.10;99.90
8820;DHT22;4446;50.876;4.736;2023-03-01T10:24:41;3.20;99.90
8820;DHT22;4446;50.876;4.736;2023-03-01T10:27:13;3.20;99.90
8820;DHT22;4446;50.876;4.736;2023-03-01T10:29:48;3.30;99.90
8820;DHT22;4446;50.876;4.736;2023-03-01T10:32:18;3.40;99.90
8820;DHT22;4446;50.876;4.736;2023-03-01T10:34:47;3.40;99.90
8820;DHT22;4446;50.876;4.736;2023-03-01T10:37:16;3.50;99.90
8820;DHT22;4446;50.876;4.736;2023-03-01T10:39:58;3.60;99.90
8820;DHT22;4446;50.876;4.736;2023-03-01T10:42:32;3.60;99.90
8820;DHT22;4446;50.876;4.736;2023-03-01T10:45:16;3.70;99.90
8820;DHT22;4446;50.876;4.736;2023-03-01T10:47:43;3.70;99.90
8820;DHT22;4446;50.876;4.736;2023-03-01T10:50:19;3.80;99.90
8820;DHT22;4446;50.876;4.736;2023-03-01T10:52:57;3.80;99.90
8820;DHT22;4446;50.876;4.736;2023-03-01T10:55:29;3.90;99.90
8820;DHT22;4446;50.876;4.736;2023-03-01T10:58:08;4.00;99.90
8820;DHT22;4446;50.876;4.736;2023-03-01T11:00:46;4.10;99.90
8820;DHT22;4446;50.876;4.736;2023-03-01T11:03:16;4.20;99.90
8820;DHT22;4446;50.876;4.736;2023-03-01T11:05:56;4.30;99.90
8820;DHT22;4446;50.876;4.736;2023-03-01T11:08:40;4.40;99.90
8820;DHT22;4446;50.876;4.736;2023-03-01T11:11:26;4.40;99.90
8820;DHT22;4446;50.876;4.736;2023-03-01T11:13:58;4.40;99.90
8820;DHT22;4446;50.876;4.736;2023-03-01T11:16:31;4.50;99.90
8820;DHT22;4446;50.876;4.736;2023-03-01T11:19:04;4.50;99.90
8820;DHT22;4446;50.876;4.736;2023-03-01T11:21:33;4.50;99.90
8820;DHT22;4446;50.876;4.736;2023-03-01T11:24:03;4.50;99.90
8820;DHT22;4446;50.876;4.736;2023-03-01T11:26:35;4.60;99.90
8820;DHT22;4446;50.876;4.736;2023-03-01T11:29:06;4.50;99.90
8820;DHT22;4446;50.876;4.736;2023-03-01T11:31:38;4.60;99.90
8820;DHT22;4446;50.876;4.736;2023-03-01T11:34:11;4.70;99.90
8820;DHT22;4446;50.876;4.736;2023-03-01T11:36:43;4.80;99.90
8820;DHT22;4446;50.876;4.736;2023-03-01T11:39:20;4.90;99.90
8820;DHT22;4446;50.876;4.736;2023-03-01T11:41:57;4.90;99.90
8820;DHT22;4446;50.876;4.736;2023-03-01T11:44:28;4.90;99.90
8820;DHT22;4446;50.876;4.736;2023-03-01T11:47:15;5.00;99.90
8820;DHT22;4446;50.876;4.736;2023-03-01T11:50:00;5.10;99.90
8820;DHT22;4446;50.876;4.736;2023-03-01T11:52:39;5.10;99.90
8820;DHT22;4446;50.876;4.736;2023-03-01T11:55:30;5.20;99.90
8820;DHT22;4446;50.876;4.736;2023-03-01T11:58:14;5.20;99.90
8820;DHT22;4446;50.876;4.736;2023-03-01T12:01:02;5.30;99.90
8820;DHT22;4446;50.876;4.736;2023-03-01T12:06:55;5.40;99.90
8820;DHT22;4446;50.876;4.736;2023-03-01T12:09:36;5.50;99.90
8820;DHT22;4446;50.876;4.736;2023-03-01T12:12:26;5.60;99.90
8820;DHT22;4446;50.876;4.736;2023-03-01T12:15:18;5.60;99.90
8820;DHT22;4446;50.876;4.736;2023-03-01T12:18:02;5.80;99.90
8820;DHT22;4446;50.876;4.736;2023-03-01T12:20:35;5.80;99.90
8820;DHT22;4446;50.876;4.736;2023-03-01T12:23:25;5.80;99.90
8820;DHT22;4446;50.876;4.736;2023-03-01T12:25:58;5.80;99.90
8820;DHT22;4446;50.876;4.736;2023-03-01T12:28:46;5.90;99.90
8820;DHT22;4446;50.876;4.736;2023-03-01T12:31:50;5.90;99.90
8820;DHT22;4446;50.876;4.736;2023-03-01T12:37:28;6.00;99.90
8820;DHT22;4446;50.876;4.736;2023-03-01T12:43:17;6.10;99.90
8820;DHT22;4446;50.876;4.736;2023-03-01T12:48:59;6.10;99.90
8820;DHT22;4446;50.876;4.736;2023-03-01T12:51:33;6.20;99.90
8820;DHT22;4446;50.876;4.736;2023-03-01T12:54:07;6.20;99.90
8820;DHT22;4446;50.876;4.736;2023-03-01T12:56:38;6.20;99.90
8820;DHT22;4446;50.876;4.736;2023-03-01T12:59:13;6.20;99.90
8820;DHT22;4446;50.876;4.736;2023-03-01T13:01:48;6.20;99.90
8820;DHT22;4446;50.876;4.736;2023-03-01T13:04:34;6.30;99.90
8820;DHT22;4446;50.876;4.736;2023-03-01T13:07:13;6.30;99.90
8820;DHT22;4446;50.876;4.736;2023-03-01T13:09:49;6.30;99.90
8820;DHT22;4446;50.876;4.736;2023-03-01T13:12:44;6.40;99.90
8820;DHT22;4446;50.876;4.736;2023-03-01T13:15:32;6.40;99.90
8820;DHT22;4446;50.876;4.736;2023-03-01T13:18:01;6.40;99.90
8820;DHT22;4446;50.876;4.736;2023-03-01T13:20:34;6.50;99.90
8820;DHT22;4446;50.876;4.736;2023-03-01T13:23:04;6.50;99.90
8820;DHT22;4446;50.876;4.736;2023-03-01T13:25:32;6.50;99.90
8820;DHT22;4446;50.876;4.736;2023-03-01T13:31:06;6.60;99.90
8820;DHT22;4446;50.876;4.736;2023-03-01T13:33:40;6.60;99.90
8820;DHT22;4446;50.876;4.736;2023-03-01T13:36:11;6.50;99.90
8820;DHT22;4446;50.876;4.736;2023-03-01T13:38:46;6.60;99.90
8820;DHT22;4446;50.876;4.736;2023-03-01T13:41:14;6.70;99.90
8820;DHT22;4446;50.876;4.736;2023-03-01T13:43:43;6.60;99.90
8820;DHT22;4446;50.876;4.736;2023-03-01T13:46:16;6.60;99.90
8820;DHT22;4446;50.876;4.736;2023-03-01T13:48:45;6.60;99.90
8820;DHT22;4446;50.876;4.736;2023-03-01T13:51:15;6.60;99.90
8820;DHT22;4446;50.876;4.736;2023-03-01T13:53:45;6.70;99.90
8820;DHT22;4446;50.876;4.736;2023-03-01T13:56:15;6.80;99.90
8820;DHT22;4446;50.876;4.736;2023-03-01T13:58:51;6.80;99.90
8820;DHT22;4446;50.876;4.736;2023-03-01T14:01:27;6.80;99.90
8820;DHT22;4446;50.876;4.736;2023-03-01T14:03:55;6.90;99.90
8820;DHT22;4446;50.876;4.736;2023-03-01T14:06:25;7.00;99.90
8820;DHT22;4446;50.876;4.736;2023-03-01T14:09:02;6.80;99.90
8820;DHT22;4446;50.876;4.736;2023-03-01T14:14:51;6.80;99.90
8820;DHT22;4446;50.876;4.736;2023-03-01T14:17:39;6.80;99.90
8820;DHT22;4446;50.876;4.736;2023-03-01T14:20:14;7.20;99.90
8820;DHT22;4446;50.876;4.736;2023-03-01T14:22:44;7.60;99.90
8820;DHT22;4446;50.876;4.736;2023-03-01T14:25:22;7.70;99.90
8820;DHT22;4446;50.876;4.736;2023-03-01T14:27:56;7.50;99.90
8820;DHT22;4446;50.876;4.736;2023-03-01T14:30:26;7.30;99.90
8820;DHT22;4446;50.876;4.736;2023-03-01T14:32:55;7.20;99.90
8820;DHT22;4446;50.876;4.736;2023-03-01T14:35:25;7.00;99.90
8820;DHT22;4446;50.876;4.736;2023-03-01T14:37:53;6.90;99.90
8820;DHT22;4446;50.876;4.736;2023-03-01T14:40:26;6.90;99.90
8820;DHT22;4446;50.876;4.736;2023-03-01T14:42:55;6.80;99.90
8820;DHT22;4446;50.876;4.736;2023-03-01T14:45:25;6.80;99.90
8820;DHT22;4446;50.876;4.736;2023-03-01T14:47:53;6.80;99.90
8820;DHT22;4446;50.876;4.736;2023-03-01T14:50:26;6.70;99.90
8820;DHT22;4446;50.876;4.736;2023-03-01T14:52:57;6.70;99.90
8820;DHT22;4446;50.876;4.736;2023-03-01T14:55:28;6.70;99.90
8820;DHT22;4446;50.876;4.736;2023-03-01T14:57:57;6.70;99.90
8820;DHT22;4446;50.876;4.736;2023-03-01T15:00:25;6.80;99.90
8820;DHT22;4446;50.876;4.736;2023-03-01T15:02:55;6.80;99.90
8820;DHT22;4446;50.876;4.736;2023-03-01T15:05:26;6.90;99.90
8820;DHT22;4446;50.876;4.736;2023-03-01T15:07:57;6.90;99.90
8820;DHT22;4446;50.876;4.736;2023-03-01T15:10:27;6.80;99.90
8820;DHT22;4446;50.876;4.736;2023-03-01T15:12:56;6.80;99.90
8820;DHT22;4446;50.876;4.736;2023-03-01T15:15:33;6.80;99.90
8820;DHT22;4446;50.876;4.736;2023-03-01T15:18:03;6.70;99.90
8820;DHT22;4446;50.876;4.736;2023-03-01T15:20:32;6.70;99.90
8820;DHT22;4446;50.876;4.736;2023-03-01T15:23:03;6.70;99.90
8820;DHT22;4446;50.876;4.736;2023-03-01T15:25:31;6.80;99.90
8820;DHT22;4446;50.876;4.736;2023-03-01T15:28:00;6.80;99.90
8820;DHT22;4446;50.876;4.736;2023-03-01T15:30:32;6.80;99.90
8820;DHT22;4446;50.876;4.736;2023-03-01T15:33:34;6.80;99.90
8820;DHT22;4446;50.876;4.736;2023-03-01T15:36:29;6.80;99.90
8820;DHT22;4446;50.876;4.736;2023-03-01T15:38:58;6.80;99.90
8820;DHT22;4446;50.876;4.736;2023-03-01T15:41:27;6.80;99.90
8820;DHT22;4446;50.876;4.736;2023-03-01T15:43:57;6.80;99.90
8820;DHT22;4446;50.876;4.736;2023-03-01T15:46:27;6.90;99.90
8820;DHT22;4446;50.876;4.736;2023-03-01T15:48:57;6.90;99.90
8820;DHT22;4446;50.876;4.736;2023-03-01T15:51:31;6.90;99.90
8820;DHT22;4446;50.876;4.736;2023-03-01T15:54:02;6.80;99.90
8820;DHT22;4446;50.876;4.736;2023-03-01T15:56:29;6.80;99.90
8820;DHT22;4446;50.876;4.736;2023-03-01T15:59:01;6.90;99.90
8820;DHT22;4446;50.876;4.736;2023-03-01T16:01:29;6.80;99.90
8820;DHT22;4446;50.876;4.736;2023-03-01T16:03:56;6.80;99.90
8820;DHT22;4446;50.876;4.736;2023-03-01T16:06:24;6.80;99.90
8820;DHT22;4446;50.876;4.736;2023-03-01T16:08:54;6.90;99.90
8820;DHT22;4446;50.876;4.736;2023-03-01T16:11:22;7.10;99.90
8820;DHT22;4446;50.876;4.736;2023-03-01T16:13:49;7.40;99.90
8820;DHT22;4446;50.876;4.736;2023-03-01T16:16:18;7.80;99.90
8820;DHT22;4446;50.876;4.736;2023-03-01T16:18:46;8.10;99.90
8820;DHT22;4446;50.876;4.736;2023-03-01T16:21:21;8.30;99.90
8820;DHT22;4446;50.876;4.736;2023-03-01T16:23:48;8.50;99.90
8820;DHT22;4446;50.876;4.736;2023-03-01T16:26:16;8.40;99.90
8820;DHT22;4446;50.876;4.736;2023-03-01T16:28:46;8.30;99.90
8820;DHT22;4446;50.876;4.736;2023-03-01T16:31:17;8.30;99.90
8820;DHT22;4446;50.876;4.736;2023-03-01T16:33:44;8.20;99.90
8820;DHT22;4446;50.876;4.736;2023-03-01T16:36:15;8.30;99.90
8820;DHT22;4446;50.876;4.736;2023-03-01T16:38:43;8.10;99.90
8820;DHT22;4446;50.876;4.736;2023-03-01T16:41:12;7.90;99.90
8820;DHT22;4446;50.876;4.736;2023-03-01T16:43:40;7.70;99.90
8820;DHT22;4446;50.876;4.736;2023-03-01T16:46:12;7.60;99.90
8820;DHT22;4446;50.876;4.736;2023-03-01T16:48:39;7.40;99.90
8820;DHT22;4446;50.876;4.736;2023-03-01T16:51:06;7.20;99.90
8820;DHT22;4446;50.876;4.736;2023-03-01T16:53:34;7.00;99.90